Taylorsville, Utah
Current Conditions -  °F | °C
As of 12:53 PM on Wednesday 26 Nov 2014 (Local Time) from KSLC Reporting Station
Few Clouds Few Clouds  
Wind Chill: 57°   Ceiling: Unl
Heat Index: 57°   Visibility: 10mi
Dew Point: 30°   Wind: 3mph
Humidity: 36%   Direction: NA
Pressure: 30.37"   Gusts: NA
Location:  40.6511°N, 112.018°W
Report Text: KSLC 261953Z VRB03KT 10SM FEW070 FEW110 FEW200 14/M01 A3037 RMK AO2 SLP270 ACSL DSNT NE AND SE AND W T01391011
Loading
Personal Weather Stations






























Interactive Weather Map New forecast layout! Learn more

10-Day Weather Forecast

Advertisements
Track Severe Weather on mobile